Terminal Aerodrome Forecast
Issued by NWS Bismarck, ND

Home | Current Version | Previous Version | Graphics & Text | Print | Product List | Glossary On
Versions: 1 2 3 4 5 6 7 8 9 10 11 12 13 14 15
000
FTUS43 KBIS 091100 AAA
TAFISN
TAF AMD
KISN 091118Z 0911/1006 VRB05KT 4SM FU SKC
      TEMPO 0911/0913 2SM BR FU
     FM091600 15007KT P6SM FEW050=

USA.gov is the U.S. government's official web portal to all federal, state and local government web resources and services.